sensor_id;sensor_type;location;lat;lon;timestamp;pressure;altitude;pressure_sealevel;temperature;humidity
18749;BME280;9503;53.560;10.246;2022-12-18T00:02:03;102273.22;;;-3.77;88.98
18749;BME280;9503;53.560;10.246;2022-12-18T00:04:30;102277.22;;;-3.72;89.24
18749;BME280;9503;53.560;10.246;2022-12-18T00:06:56;102286.34;;;-3.72;88.88
18749;BME280;9503;53.560;10.246;2022-12-18T00:09:23;102295.97;;;-3.75;89.06
18749;BME280;9503;53.560;10.246;2022-12-18T00:11:50;102297.56;;;-3.76;88.61
18749;BME280;9503;53.560;10.246;2022-12-18T00:14:17;102300.50;;;-3.73;88.71
18749;BME280;9503;53.560;10.246;2022-12-18T00:16:45;102298.00;;;-3.73;88.97
18749;BME280;9503;53.560;10.246;2022-12-18T00:19:13;102292.06;;;-3.73;88.76
18749;BME280;9503;53.560;10.246;2022-12-18T00:21:40;102287.63;;;-3.69;88.37
18749;BME280;9503;53.560;10.246;2022-12-18T00:24:07;102288.88;;;-3.72;87.81
18749;BME280;9503;53.560;10.246;2022-12-18T00:26:36;102301.69;;;-3.76;87.99
18749;BME280;9503;53.560;10.246;2022-12-18T00:29:04;102309.91;;;-3.90;88.64
18749;BME280;9503;53.560;10.246;2022-12-18T00:31:32;102315.81;;;-3.77;88.30
18749;BME280;9503;53.560;10.246;2022-12-18T00:34:00;102312.03;;;-3.80;88.31
18749;BME280;9503;53.560;10.246;2022-12-18T00:36:30;102307.72;;;-3.81;88.33
18749;BME280;9503;53.560;10.246;2022-12-18T00:38:59;102309.72;;;-3.79;87.99
18749;BME280;9503;53.560;10.246;2022-12-18T00:41:26;102307.81;;;-3.87;88.04
18749;BME280;9503;53.560;10.246;2022-12-18T00:44:13;102314.16;;;-3.96;87.56
18749;BME280;9503;53.560;10.246;2022-12-18T00:46:40;102315.72;;;-3.97;87.67
18749;BME280;9503;53.560;10.246;2022-12-18T00:49:09;102316.44;;;-3.98;88.10
18749;BME280;9503;53.560;10.246;2022-12-18T00:51:35;102325.66;;;-4.04;88.24
18749;BME280;9503;53.560;10.246;2022-12-18T00:54:02;102320.34;;;-4.00;88.42
18749;BME280;9503;53.560;10.246;2022-12-18T00:56:28;102324.56;;;-3.93;87.81
18749;BME280;9503;53.560;10.246;2022-12-18T00:58:55;102321.25;;;-3.99;87.46
18749;BME280;9503;53.560;10.246;2022-12-18T01:01:22;102312.91;;;-4.05;88.25
18749;BME280;9503;53.560;10.246;2022-12-18T01:03:48;102313.63;;;-4.06;88.35
18749;BME280;9503;53.560;10.246;2022-12-18T01:06:16;102319.63;;;-3.99;88.19
18749;BME280;9503;53.560;10.246;2022-12-18T01:08:44;102323.75;;;-3.99;88.19
18749;BME280;9503;53.560;10.246;2022-12-18T01:11:12;102329.97;;;-4.03;87.78
18749;BME280;9503;53.560;10.246;2022-12-18T01:13:40;102331.16;;;-4.06;87.97
18749;BME280;9503;53.560;10.246;2022-12-18T01:16:07;102328.25;;;-4.09;87.92
18749;BME280;9503;53.560;10.246;2022-12-18T01:18:34;102333.25;;;-4.09;88.17
18749;BME280;9503;53.560;10.246;2022-12-18T01:21:05;102334.88;;;-4.10;88.10
18749;BME280;9503;53.560;10.246;2022-12-18T01:23:33;102332.13;;;-4.11;88.19
18749;BME280;9503;53.560;10.246;2022-12-18T01:26:04;102333.75;;;-4.12;87.91
18749;BME280;9503;53.560;10.246;2022-12-18T01:28:31;102328.06;;;-4.11;87.65
18749;BME280;9503;53.560;10.246;2022-12-18T01:30:57;102328.84;;;-4.18;87.89
18749;BME280;9503;53.560;10.246;2022-12-18T01:33:34;102329.25;;;-4.14;87.46
18749;BME280;9503;53.560;10.246;2022-12-18T01:36:01;102320.84;;;-4.15;87.37
18749;BME280;9503;53.560;10.246;2022-12-18T01:38:28;102316.81;;;-4.20;87.92
18749;BME280;9503;53.560;10.246;2022-12-18T01:40:58;102311.09;;;-4.19;87.70
18749;BME280;9503;53.560;10.246;2022-12-18T01:43:43;102307.03;;;-4.19;87.62
18749;BME280;9503;53.560;10.246;2022-12-18T01:46:10;102309.91;;;-4.28;87.43
18749;BME280;9503;53.560;10.246;2022-12-18T01:48:37;102317.59;;;-4.27;87.38
18749;BME280;9503;53.560;10.246;2022-12-18T01:51:06;102321.84;;;-4.33;87.84
18749;BME280;9503;53.560;10.246;2022-12-18T01:53:34;102334.00;;;-4.41;87.85
18749;BME280;9503;53.560;10.246;2022-12-18T01:56:04;102337.44;;;-4.28;87.46
18749;BME280;9503;53.560;10.246;2022-12-18T01:58:35;102338.50;;;-4.52;86.81
18749;BME280;9503;53.560;10.246;2022-12-18T02:01:05;102343.50;;;-4.52;86.86
18749;BME280;9503;53.560;10.246;2022-12-18T02:03:32;102345.69;;;-4.60;87.30
18749;BME280;9503;53.560;10.246;2022-12-18T02:06:04;102343.13;;;-4.55;87.34
18749;BME280;9503;53.560;10.246;2022-12-18T02:08:38;102340.59;;;-4.55;86.67
18749;BME280;9503;53.560;10.246;2022-12-18T02:11:13;102343.66;;;-4.63;87.20
18749;BME280;9503;53.560;10.246;2022-12-18T02:13:53;102349.59;;;-4.62;86.67
18749;BME280;9503;53.560;10.246;2022-12-18T02:16:26;102353.56;;;-4.70;86.28
18749;BME280;9503;53.560;10.246;2022-12-18T02:18:58;102355.44;;;-4.75;85.73
18749;BME280;9503;53.560;10.246;2022-12-18T02:21:32;102350.72;;;-4.79;86.55
18749;BME280;9503;53.560;10.246;2022-12-18T02:24:15;102348.31;;;-4.84;86.25
18749;BME280;9503;53.560;10.246;2022-12-18T02:26:48;102345.38;;;-4.87;86.07
18749;BME280;9503;53.560;10.246;2022-12-18T02:29:18;102347.88;;;-4.87;86.32
18749;BME280;9503;53.560;10.246;2022-12-18T02:31:49;102347.00;;;-4.88;86.88
18749;BME280;9503;53.560;10.246;2022-12-18T02:34:19;102346.91;;;-4.82;86.36
18749;BME280;9503;53.560;10.246;2022-12-18T02:36:48;102346.91;;;-4.82;86.92
18749;BME280;9503;53.560;10.246;2022-12-18T02:39:16;102345.50;;;-4.80;87.38
18749;BME280;9503;53.560;10.246;2022-12-18T02:41:46;102350.00;;;-4.78;87.24
18749;BME280;9503;53.560;10.246;2022-12-18T02:44:13;102353.44;;;-4.77;86.82
18749;BME280;9503;53.560;10.246;2022-12-18T02:46:42;102353.44;;;-4.77;86.99
18749;BME280;9503;53.560;10.246;2022-12-18T02:49:26;102369.63;;;-4.81;86.76
18749;BME280;9503;53.560;10.246;2022-12-18T02:51:58;102363.31;;;-4.84;86.07
18749;BME280;9503;53.560;10.246;2022-12-18T02:54:38;102360.38;;;-4.87;86.50
18749;BME280;9503;53.560;10.246;2022-12-18T02:57:15;102357.69;;;-4.89;86.86
18749;BME280;9503;53.560;10.246;2022-12-18T02:59:51;102352.28;;;-4.92;86.42
18749;BME280;9503;53.560;10.246;2022-12-18T03:02:24;102357.19;;;-4.86;87.07
18749;BME280;9503;53.560;10.246;2022-12-18T03:04:59;102363.31;;;-4.84;86.64
18749;BME280;9503;53.560;10.246;2022-12-18T03:07:34;102363.53;;;-4.83;86.87
18749;BME280;9503;53.560;10.246;2022-12-18T03:10:02;102366.94;;;-4.82;86.91
18749;BME280;9503;53.560;10.246;2022-12-18T03:12:33;102376.09;;;-4.88;86.90
18749;BME280;9503;53.560;10.246;2022-12-18T03:15:04;102369.78;;;-4.92;86.37
18749;BME280;9503;53.560;10.246;2022-12-18T03:17:34;102372.56;;;-4.96;86.75
18749;BME280;9503;53.560;10.246;2022-12-18T03:20:07;102371.34;;;-4.92;86.82
18749;BME280;9503;53.560;10.246;2022-12-18T03:22:37;102383.06;;;-4.98;86.29
18749;BME280;9503;53.560;10.246;2022-12-18T03:25:06;102379.16;;;-5.15;86.02
18749;BME280;9503;53.560;10.246;2022-12-18T03:27:38;102380.09;;;-5.38;86.69
18749;BME280;9503;53.560;10.246;2022-12-18T03:30:11;102373.09;;;-5.41;86.62
18749;BME280;9503;53.560;10.246;2022-12-18T03:32:41;102367.34;;;-5.34;86.93
18749;BME280;9503;53.560;10.246;2022-12-18T03:35:11;102378.41;;;-5.26;87.34
18749;BME280;9503;53.560;10.246;2022-12-18T03:37:39;102382.63;;;-5.20;87.38
18749;BME280;9503;53.560;10.246;2022-12-18T03:40:07;102390.03;;;-5.14;87.59
18749;BME280;9503;53.560;10.246;2022-12-18T03:42:40;102385.69;;;-5.10;86.98
18749;BME280;9503;53.560;10.246;2022-12-18T03:45:14;102378.25;;;-5.15;86.36
18749;BME280;9503;53.560;10.246;2022-12-18T03:47:53;102373.47;;;-5.14;87.09
18749;BME280;9503;53.560;10.246;2022-12-18T03:50:30;102373.94;;;-5.16;87.19
18749;BME280;9503;53.560;10.246;2022-12-18T03:53:09;102368.69;;;-5.12;87.17
18749;BME280;9503;53.560;10.246;2022-12-18T03:55:39;102373.19;;;-5.10;87.77
18749;BME280;9503;53.560;10.246;2022-12-18T03:58:11;102369.97;;;-5.09;88.10
18749;BME280;9503;53.560;10.246;2022-12-18T04:00:41;102366.78;;;-5.08;87.77
18749;BME280;9503;53.560;10.246;2022-12-18T04:03:10;102357.63;;;-5.02;87.60
18749;BME280;9503;53.560;10.246;2022-12-18T04:05:37;102359.53;;;-5.06;87.94
18749;BME280;9503;53.560;10.246;2022-12-18T04:08:05;102362.34;;;-4.97;88.42
18749;BME280;9503;53.560;10.246;2022-12-18T04:10:31;102357.97;;;-4.93;88.01
18749;BME280;9503;53.560;10.246;2022-12-18T04:12:58;102355.25;;;-4.94;87.78
18749;BME280;9503;53.560;10.246;2022-12-18T04:15:26;102352.75;;;-4.94;87.92
18749;BME280;9503;53.560;10.246;2022-12-18T04:17:53;102355.31;;;-5.00;88.25
18749;BME280;9503;53.560;10.246;2022-12-18T04:20:20;102359.34;;;-4.95;87.82
18749;BME280;9503;53.560;10.246;2022-12-18T04:22:47;102350.56;;;-4.98;87.41
18749;BME280;9503;53.560;10.246;2022-12-18T04:25:14;102353.06;;;-4.98;87.69
18749;BME280;9503;53.560;10.246;2022-12-18T04:27:41;102356.31;;;-5.05;87.65
18749;BME280;9503;53.560;10.246;2022-12-18T04:30:08;102364.03;;;-5.04;87.74
18749;BME280;9503;53.560;10.246;2022-12-18T04:32:36;102352.63;;;-5.02;87.43
18749;BME280;9503;53.560;10.246;2022-12-18T04:35:03;102363.72;;;-5.00;86.98
18749;BME280;9503;53.560;10.246;2022-12-18T04:37:31;102365.31;;;-5.00;87.10
18749;BME280;9503;53.560;10.246;2022-12-18T04:39:58;102372.78;;;-5.13;86.38
18749;BME280;9503;53.560;10.246;2022-12-18T04:42:25;102379.69;;;-5.23;86.07
18749;BME280;9503;53.560;10.246;2022-12-18T04:44:51;102375.41;;;-5.24;86.68
18749;BME280;9503;53.560;10.246;2022-12-18T04:47:18;102374.69;;;-5.23;86.31
18749;BME280;9503;53.560;10.246;2022-12-18T04:49:46;102368.59;;;-5.25;86.34
18749;BME280;9503;53.560;10.246;2022-12-18T04:52:12;102365.69;;;-5.28;86.44
18749;BME280;9503;53.560;10.246;2022-12-18T04:54:39;102372.00;;;-5.24;86.65
18749;BME280;9503;53.560;10.246;2022-12-18T04:57:06;102365.69;;;-5.28;86.22
18749;BME280;9503;53.560;10.246;2022-12-18T04:59:33;102370.69;;;-5.28;86.17
18749;BME280;9503;53.560;10.246;2022-12-18T05:01:59;102367.56;;;-5.33;86.97
18749;BME280;9503;53.560;10.246;2022-12-18T05:04:26;102371.09;;;-5.25;87.71
18749;BME280;9503;53.560;10.246;2022-12-18T05:06:54;102376.94;;;-5.19;87.42
18749;BME280;9503;53.560;10.246;2022-12-18T05:09:20;102377.44;;;-5.21;87.14
18749;BME280;9503;53.560;10.246;2022-12-18T05:11:47;102382.06;;;-5.30;86.98
18749;BME280;9503;53.560;10.246;2022-12-18T05:14:14;102394.28;;;-5.26;86.63
18749;BME280;9503;53.560;10.246;2022-12-18T05:16:40;102397.34;;;-5.34;86.38
18749;BME280;9503;53.560;10.246;2022-12-18T05:19:07;102392.34;;;-5.34;86.62
18749;BME280;9503;53.560;10.246;2022-12-18T05:21:34;102403.50;;;-5.38;86.17
18749;BME280;9503;53.560;10.246;2022-12-18T05:24:02;102405.09;;;-5.38;86.49
18749;BME280;9503;53.560;10.246;2022-12-18T05:26:28;102412.34;;;-5.34;86.81
18749;BME280;9503;53.560;10.246;2022-12-18T05:28:55;102406.91;;;-5.37;86.28
18749;BME280;9503;53.560;10.246;2022-12-18T05:31:22;102409.00;;;-5.40;86.41
18749;BME280;9503;53.560;10.246;2022-12-18T05:33:49;102406.75;;;-5.44;86.88
18749;BME280;9503;53.560;10.246;2022-12-18T05:36:15;102413.50;;;-5.38;86.81
18749;BME280;9503;53.560;10.246;2022-12-18T05:38:42;102406.28;;;-5.42;85.83
18749;BME280;9503;53.560;10.246;2022-12-18T05:41:10;102404.75;;;-5.47;85.87
18749;BME280;9503;53.560;10.246;2022-12-18T05:43:38;102412.06;;;-5.54;86.27
18749;BME280;9503;53.560;10.246;2022-12-18T05:46:06;102414.53;;;-5.48;86.00
18749;BME280;9503;53.560;10.246;2022-12-18T05:48:33;102412.72;;;-5.49;86.37
18749;BME280;9503;53.560;10.246;2022-12-18T05:51:05;102417.28;;;-5.52;86.33
18749;BME280;9503;53.560;10.246;2022-12-18T05:53:32;102420.47;;;-5.53;87.21
18749;BME280;9503;53.560;10.246;2022-12-18T05:56:00;102413.19;;;-5.52;86.91
18749;BME280;9503;53.560;10.246;2022-12-18T05:58:28;102413.63;;;-5.49;87.30
18749;BME280;9503;53.560;10.246;2022-12-18T06:00:54;102408.63;;;-5.49;86.82
18749;BME280;9503;53.560;10.246;2022-12-18T06:03:21;102411.34;;;-5.47;87.08
18749;BME280;9503;53.560;10.246;2022-12-18T06:05:48;102411.34;;;-5.47;86.91
18749;BME280;9503;53.560;10.246;2022-12-18T06:08:15;102406.19;;;-5.54;86.46
18749;BME280;9503;53.560;10.246;2022-12-18T06:10:41;102415.47;;;-5.53;86.97
18749;BME280;9503;53.560;10.246;2022-12-18T06:13:08;102409.63;;;-5.60;86.66
18749;BME280;9503;53.560;10.246;2022-12-18T06:15:37;102423.25;;;-5.58;86.73
18749;BME280;9503;53.560;10.246;2022-12-18T06:18:04;102428.25;;;-5.58;86.51
18749;BME280;9503;53.560;10.246;2022-12-18T06:20:31;102424.41;;;-5.61;85.83
18749;BME280;9503;53.560;10.246;2022-12-18T06:22:57;102417.41;;;-5.64;85.78
18749;BME280;9503;53.560;10.246;2022-12-18T06:25:24;102423.56;;;-5.67;86.31
18749;BME280;9503;53.560;10.246;2022-12-18T06:27:51;102431.31;;;-5.71;85.77
18749;BME280;9503;53.560;10.246;2022-12-18T06:30:18;102442.25;;;-5.76;85.67
18749;BME280;9503;53.560;10.246;2022-12-18T06:32:47;102435.66;;;-5.76;86.21
18749;BME280;9503;53.560;10.246;2022-12-18T06:35:14;102441.56;;;-5.75;86.73
18749;BME280;9503;53.560;10.246;2022-12-18T06:37:41;102445.88;;;-5.74;86.42
18749;BME280;9503;53.560;10.246;2022-12-18T06:40:08;102451.75;;;-5.74;86.68
18749;BME280;9503;53.560;10.246;2022-12-18T06:42:35;102447.00;;;-5.72;86.71
18749;BME280;9503;53.560;10.246;2022-12-18T06:45:02;102444.50;;;-5.72;86.73
18749;BME280;9503;53.560;10.246;2022-12-18T06:47:29;102456.31;;;-5.71;86.77
18749;BME280;9503;53.560;10.246;2022-12-18T06:49:57;102462.16;;;-5.65;86.84
18749;BME280;9503;53.560;10.246;2022-12-18T06:52:23;102459.19;;;-5.63;86.97
18749;BME280;9503;53.560;10.246;2022-12-18T06:54:50;102456.03;;;-5.67;86.97
18749;BME280;9503;53.560;10.246;2022-12-18T06:57:16;102457.78;;;-5.61;87.03
18749;BME280;9503;53.560;10.246;2022-12-18T06:59:43;102458.88;;;-5.59;87.58
18749;BME280;9503;53.560;10.246;2022-12-18T07:02:11;102456.34;;;-5.53;87.17
18749;BME280;9503;53.560;10.246;2022-12-18T07:04:37;102447.94;;;-5.53;87.22
18749;BME280;9503;53.560;10.246;2022-12-18T07:07:05;102455.19;;;-5.49;87.06
18749;BME280;9503;53.560;10.246;2022-12-18T07:09:32;102451.34;;;-5.53;87.48
18749;BME280;9503;53.560;10.246;2022-12-18T07:11:59;102443.81;;;-5.47;86.92
18749;BME280;9503;53.560;10.246;2022-12-18T07:14:25;102440.41;;;-5.48;87.14
18749;BME280;9503;53.560;10.246;2022-12-18T07:16:52;102441.81;;;-5.50;87.01
18749;BME280;9503;53.560;10.246;2022-12-18T07:19:19;102439.97;;;-5.51;87.67
18749;BME280;9503;53.560;10.246;2022-12-18T07:21:45;102452.22;;;-5.47;87.51
18749;BME280;9503;53.560;10.246;2022-12-18T07:24:13;102457.41;;;-5.45;87.73
18749;BME280;9503;53.560;10.246;2022-12-18T07:26:40;102462.16;;;-5.41;87.61
18749;BME280;9503;53.560;10.246;2022-12-18T07:29:06;102466.16;;;-5.36;87.40
18749;BME280;9503;53.560;10.246;2022-12-18T07:31:33;102469.59;;;-5.36;87.24
18749;BME280;9503;53.560;10.246;2022-12-18T07:34:00;102461.66;;;-5.39;87.22
18749;BME280;9503;53.560;10.246;2022-12-18T07:36:26;102465.56;;;-5.41;87.16
18749;BME280;9503;53.560;10.246;2022-12-18T07:38:53;102468.41;;;-5.32;87.30
18749;BME280;9503;53.560;10.246;2022-12-18T07:41:22;102474.13;;;-5.33;87.33
18749;BME280;9503;53.560;10.246;2022-12-18T07:43:49;102470.66;;;-5.28;87.26
18749;BME280;9503;53.560;10.246;2022-12-18T07:46:16;102477.94;;;-5.30;87.06
18749;BME280;9503;53.560;10.246;2022-12-18T07:48:43;102484.13;;;-5.33;87.63
18749;BME280;9503;53.560;10.246;2022-12-18T07:51:10;102484.53;;;-5.30;87.03
18749;BME280;9503;53.560;10.246;2022-12-18T07:53:36;102486.13;;;-5.31;87.19
18749;BME280;9503;53.560;10.246;2022-12-18T07:56:05;102490.38;;;-5.24;86.72
18749;BME280;9503;53.560;10.246;2022-12-18T07:58:35;102487.63;;;-5.20;87.03
18749;BME280;9503;53.560;10.246;2022-12-18T08:01:03;102484.84;;;-5.16;86.41
18749;BME280;9503;53.560;10.246;2022-12-18T08:03:30;102486.38;;;-5.11;86.63
18749;BME280;9503;53.560;10.246;2022-12-18T08:05:59;102493.19;;;-5.10;86.60
18749;BME280;9503;53.560;10.246;2022-12-18T08:08:26;102497.44;;;-5.03;86.63
18749;BME280;9503;53.560;10.246;2022-12-18T08:10:53;102490.44;;;-5.06;86.28
18749;BME280;9503;53.560;10.246;2022-12-18T08:13:19;102486.88;;;-4.95;86.72
18749;BME280;9503;53.560;10.246;2022-12-18T08:15:55;102486.47;;;-4.80;86.60
18749;BME280;9503;53.560;10.246;2022-12-18T08:18:22;102484.28;;;-4.84;86.63
18749;BME280;9503;53.560;10.246;2022-12-18T08:20:49;102479.56;;;-4.69;86.75
18749;BME280;9503;53.560;10.246;2022-12-18T08:23:15;102488.00;;;-4.56;86.82
18749;BME280;9503;53.560;10.246;2022-12-18T08:25:42;102482.94;;;-4.51;86.63
18749;BME280;9503;53.560;10.246;2022-12-18T08:28:09;102473.13;;;-4.49;86.39
18749;BME280;9503;53.560;10.246;2022-12-18T08:30:36;102469.38;;;-4.40;86.14
18749;BME280;9503;53.560;10.246;2022-12-18T08:33:04;102480.56;;;-4.43;86.16
18749;BME280;9503;53.560;10.246;2022-12-18T08:35:35;102467.22;;;-4.31;86.13
18749;BME280;9503;53.560;10.246;2022-12-18T08:38:02;102467.28;;;-4.37;86.43
18749;BME280;9503;53.560;10.246;2022-12-18T08:40:29;102461.78;;;-4.34;86.62
18749;BME280;9503;53.560;10.246;2022-12-18T08:42:55;102467.88;;;-4.14;86.30
18749;BME280;9503;53.560;10.246;2022-12-18T08:45:39;102468.56;;;-4.15;86.05
18749;BME280;9503;53.560;10.246;2022-12-18T08:48:07;102471.00;;;-4.09;85.69
18749;BME280;9503;53.560;10.246;2022-12-18T08:50:34;102471.13;;;-4.02;85.76
18749;BME280;9503;53.560;10.246;2022-12-18T08:53:01;102468.22;;;-3.93;85.60
18749;BME280;9503;53.560;10.246;2022-12-18T08:55:27;102477.09;;;-4.07;85.54
18749;BME280;9503;53.560;10.246;2022-12-18T08:57:54;102476.44;;;-3.94;85.69
18749;BME280;9503;53.560;10.246;2022-12-18T09:00:21;102476.88;;;-3.78;85.57
18749;BME280;9503;53.560;10.246;2022-12-18T09:02:47;102473.28;;;-3.80;85.62
18749;BME280;9503;53.560;10.246;2022-12-18T09:05:15;102466.03;;;-3.84;85.36
18749;BME280;9503;53.560;10.246;2022-12-18T09:07:42;102471.97;;;-3.71;85.07
18749;BME280;9503;53.560;10.246;2022-12-18T09:10:09;102476.34;;;-3.75;85.37
18749;BME280;9503;53.560;10.246;2022-12-18T09:12:35;102468.84;;;-3.75;85.29
18749;BME280;9503;53.560;10.246;2022-12-18T09:15:02;102467.56;;;-3.66;85.41
18749;BME280;9503;53.560;10.246;2022-12-18T09:17:29;102459.25;;;-3.47;85.54
18749;BME280;9503;53.560;10.246;2022-12-18T09:19:55;102469.00;;;-3.43;85.40
18749;BME280;9503;53.560;10.246;2022-12-18T09:22:23;102466.25;;;-3.31;85.58
18749;BME280;9503;53.560;10.246;2022-12-18T09:24:50;102470.91;;;-3.35;84.66
18749;BME280;9503;53.560;10.246;2022-12-18T09:27:17;102478.19;;;-3.23;84.65
18749;BME280;9503;53.560;10.246;2022-12-18T09:29:43;102483.41;;;-3.09;85.05
18749;BME280;9503;53.560;10.246;2022-12-18T09:32:10;102475.88;;;-3.09;83.82
18749;BME280;9503;53.560;10.246;2022-12-18T09:34:36;102478.56;;;-2.95;84.67
18749;BME280;9503;53.560;10.246;2022-12-18T09:37:03;102476.38;;;-2.86;84.43
18749;BME280;9503;53.560;10.246;2022-12-18T09:39:31;102473.00;;;-2.80;84.36
18749;BME280;9503;53.560;10.246;2022-12-18T09:41:58;102464.75;;;-2.66;84.64
18749;BME280;9503;53.560;10.246;2022-12-18T09:44:27;102472.97;;;-2.54;85.33
18749;BME280;9503;53.560;10.246;2022-12-18T09:47:03;102475.47;;;-2.54;84.42
18749;BME280;9503;53.560;10.246;2022-12-18T09:49:35;102469.03;;;-2.52;84.21
18749;BME280;9503;53.560;10.246;2022-12-18T09:52:09;102468.34;;;-2.31;84.25
18749;BME280;9503;53.560;10.246;2022-12-18T09:54:40;102469.69;;;-2.20;84.49
18749;BME280;9503;53.560;10.246;2022-12-18T09:57:13;102466.75;;;-2.31;83.30
18749;BME280;9503;53.560;10.246;2022-12-18T09:59:42;102471.63;;;-2.45;82.62
18749;BME280;9503;53.560;10.246;2022-12-18T10:02:14;102473.13;;;-2.40;82.67
18749;BME280;9503;53.560;10.246;2022-12-18T10:04:41;102470.88;;;-2.31;82.99
18749;BME280;9503;53.560;10.246;2022-12-18T10:07:14;102476.47;;;-2.07;84.12
18749;BME280;9503;53.560;10.246;2022-12-18T10:09:53;102479.31;;;-2.11;83.50
18749;BME280;9503;53.560;10.246;2022-12-18T10:12:29;102477.59;;;-2.05;82.91
18749;BME280;9503;53.560;10.246;2022-12-18T10:15:04;102476.78;;;-1.91;83.21
18749;BME280;9503;53.560;10.246;2022-12-18T10:17:38;102481.06;;;-1.97;82.47
18749;BME280;9503;53.560;10.246;2022-12-18T10:20:12;102475.75;;;-1.86;82.08
18749;BME280;9503;53.560;10.246;2022-12-18T10:22:47;102477.03;;;-1.82;82.09
18749;BME280;9503;53.560;10.246;2022-12-18T10:25:22;102480.88;;;-1.72;82.42
18749;BME280;9503;53.560;10.246;2022-12-18T10:27:52;102485.25;;;-1.63;82.63
18749;BME280;9503;53.560;10.246;2022-12-18T10:30:21;102483.13;;;-1.60;82.84
18749;BME280;9503;53.560;10.246;2022-12-18T10:32:48;102484.59;;;-1.55;81.64
18749;BME280;9503;53.560;10.246;2022-12-18T10:35:18;102499.25;;;-1.65;80.83
18749;BME280;9503;53.560;10.246;2022-12-18T10:38:05;102499.97;;;-1.67;81.53
18749;BME280;9503;53.560;10.246;2022-12-18T10:40:47;102510.19;;;-1.45;81.89
18749;BME280;9503;53.560;10.246;2022-12-18T10:43:15;102498.88;;;-1.42;82.21
18749;BME280;9503;53.560;10.246;2022-12-18T10:46:01;102493.00;;;-1.35;80.93
18749;BME280;9503;53.560;10.246;2022-12-18T10:48:29;102491.56;;;-1.33;80.94
18749;BME280;9503;53.560;10.246;2022-12-18T10:50:56;102492.44;;;-1.40;80.62
18749;BME280;9503;53.560;10.246;2022-12-18T10:53:25;102493.72;;;-1.36;80.33
18749;BME280;9503;53.560;10.246;2022-12-18T10:55:55;102484.84;;;-1.13;81.41
18749;BME280;9503;53.560;10.246;2022-12-18T10:58:27;102495.41;;;-1.22;80.55
18749;BME280;9503;53.560;10.246;2022-12-18T11:01:04;102484.84;;;-1.13;80.35
18749;BME280;9503;53.560;10.246;2022-12-18T11:03:33;102471.03;;;-1.09;79.53
18749;BME280;9503;53.560;10.246;2022-12-18T11:06:03;102478.22;;;-1.05;78.42
18749;BME280;9503;53.560;10.246;2022-12-18T11:08:30;102465.44;;;-0.72;80.13
18749;BME280;9503;53.560;10.246;2022-12-18T11:10:58;102462.22;;;-0.64;79.56
18749;BME280;9503;53.560;10.246;2022-12-18T11:13:27;102482.50;;;-0.77;78.78
18749;BME280;9503;53.560;10.246;2022-12-18T11:15:54;102474.03;;;-0.77;78.48
18749;BME280;9503;53.560;10.246;2022-12-18T11:18:25;102475.75;;;-0.49;79.92
18749;BME280;9503;53.560;10.246;2022-12-18T11:20:54;102475.69;;;-0.71;77.43
18749;BME280;9503;53.560;10.246;2022-12-18T11:23:23;102468.19;;;-0.57;77.59
18749;BME280;9503;53.560;10.246;2022-12-18T11:25:51;102464.22;;;-0.47;77.43
18749;BME280;9503;53.560;10.246;2022-12-18T11:28:28;102468.72;;;-0.45;78.30
18749;BME280;9503;53.560;10.246;2022-12-18T11:31:15;102467.50;;;-0.41;76.81
18749;BME280;9503;53.560;10.246;2022-12-18T11:33:46;102468.75;;;-0.23;77.07
18749;BME280;9503;53.560;10.246;2022-12-18T11:36:16;102453.84;;;-0.29;77.99
18749;BME280;9503;53.560;10.246;2022-12-18T11:38:44;102441.94;;;-0.23;77.50
18749;BME280;9503;53.560;10.246;2022-12-18T11:41:20;102437.28;;;-0.34;76.03
18749;BME280;9503;53.560;10.246;2022-12-18T11:43:54;102439.97;;;-0.04;77.76
18749;BME280;9503;53.560;10.246;2022-12-18T11:46:27;102446.09;;;-0.23;76.10
18749;BME280;9503;53.560;10.246;2022-12-18T11:49:03;102446.81;;;-0.10;74.97
18749;BME280;9503;53.560;10.246;2022-12-18T11:51:35;102442.34;;;0.09;75.52
18749;BME280;9503;53.560;10.246;2022-12-18T11:54:10;102433.50;;;-0.02;74.64
18749;BME280;9503;53.560;10.246;2022-12-18T11:56:43;102439.09;;;0.03;74.47
18749;BME280;9503;53.560;10.246;2022-12-18T11:59:22;102433.88;;;-0.06;74.24
18749;BME280;9503;53.560;10.246;2022-12-18T12:01:58;102432.75;;;0.20;75.02
18749;BME280;9503;53.560;10.246;2022-12-18T12:04:47;102429.72;;;0.16;72.98
18749;BME280;9503;53.560;10.246;2022-12-18T12:07:27;102429.72;;;-0.13;72.25
18749;BME280;9503;53.560;10.246;2022-12-18T12:10:04;102425.22;;;-0.15;72.95
18749;BME280;9503;53.560;10.246;2022-12-18T12:12:40;102425.22;;;-0.08;72.27
18749;BME280;9503;53.560;10.246;2022-12-18T12:15:27;102421.63;;;-0.17;72.47
18749;BME280;9503;53.560;10.246;2022-12-18T12:18:01;102400.38;;;-0.05;72.02
18749;BME280;9503;53.560;10.246;2022-12-18T12:20:41;102404.13;;;-0.02;72.58
18749;BME280;9503;53.560;10.246;2022-12-18T12:23:15;102393.72;;;-0.05;71.29
18749;BME280;9503;53.560;10.246;2022-12-18T12:25:51;102396.97;;;-0.13;71.40
18749;BME280;9503;53.560;10.246;2022-12-18T12:28:24;102394.41;;;0.16;71.37
18749;BME280;9503;53.560;10.246;2022-12-18T12:31:05;102390.63;;;0.19;71.76
18749;BME280;9503;53.560;10.246;2022-12-18T12:33:44;102386.44;;;0.34;70.16
18749;BME280;9503;53.560;10.246;2022-12-18T12:36:20;102387.53;;;0.22;69.94
18749;BME280;9503;53.560;10.246;2022-12-18T12:38:54;102376.97;;;-0.04;70.25
18749;BME280;9503;53.560;10.246;2022-12-18T12:41:25;102371.34;;;0.06;70.38
18749;BME280;9503;53.560;10.246;2022-12-18T12:44:16;102371.16;;;0.25;70.77
18749;BME280;9503;53.560;10.246;2022-12-18T12:46:47;102371.88;;;0.32;70.08
18749;BME280;9503;53.560;10.246;2022-12-18T12:49:17;102361.91;;;0.40;70.29
18749;BME280;9503;53.560;10.246;2022-12-18T12:51:48;102353.22;;;0.60;70.17
18749;BME280;9503;53.560;10.246;2022-12-18T12:54:18;102360.50;;;0.79;69.83
18749;BME280;9503;53.560;10.246;2022-12-18T12:56:50;102350.53;;;0.51;70.37
18749;BME280;9503;53.560;10.246;2022-12-18T12:59:24;102338.41;;;0.63;71.01
18749;BME280;9503;53.560;10.246;2022-12-18T13:02:01;102333.38;;;0.55;71.63
18749;BME280;9503;53.560;10.246;2022-12-18T13:04:36;102321.53;;;-0.11;72.03